Falmouth, MA (02540)

4:27 PM EST on January 17, 2017 (GMT -0500)
| | Change Station
Active Advisory: Small Craft Advisory

Elev -9999 ft 0.00 °N, 0.00 °E | Updated 14 minutes ago

Rain
Rain
°F
Feels Like °F
N
Wind Variable Wind from North
Gusts mph

Today
High -- | Low -- °F
--% Chance of Precip.
Yesterday
High -- | Low -- °F
Precip. -- in
Pressure 30.16 in
Visibility 10.0 miles
Clouds Mostly Cloudy 8000 ft
Overcast 9000 ft
Dew Point Not available.
Humidity Not available.
Rainfall --
Snow Depth Not available.
7:05 AM 4:40 PM
Waning Gibbous, 69% visible
METAR KMVY 172053Z 07005KT 10SM BKN080 OVC090 05/M02 A3016 RMK AO2 SLP212 T00501022 56009
Pressure 30.16 in
Visibility 10.0 miles
Clouds Mostly Cloudy 8000 ft
Overcast 9000 ft
Dew Point Not available.
Humidity Not available.
Rainfall --
Snow Depth Not available.
7:05 AM 4:40 PM
Waning Gibbous, 69% visible
METAR KMVY 172053Z 07005KT 10SM BKN080 OVC090 05/M02 A3016 RMK AO2 SLP212 T00501022 56009

Get Your Daily Forecast Email!

Thanks for signing up!

Be on the lookout for a verification email in your inbox.

You'll start receiving the daily forecast at 8 AM.

×

10-Day Weather Forecast

Almanac

Astronomy

Jan. 17, 2017 Rise Set
Actual Time
Civil Twilight
Nautical Twilight
Astronomical Twilight
Moon
Length of Visible Light
Length of Day
Tomorrow will be .
, % of the Moon is Illuminated

Today's Extremes

State Highs State Lows

Community

WunderPhotos

Upload Photos

1,962,540 photos uploaded!

WunderBlog® & News

Nearby

Air Quality

  Air Quality AQ Index Pollutant
Not available.

Snow Depth

Station Depth Elevation

Earthquake Activity

City Distance Mag. Time & Date
Minimum magnitude displayed is 2.5.

Coastal Water Temperatures

Place Temperature

Stations

Nearby Weather Stations

Station Location Temp. Windchill Dew Point Humidity Wind Precip. Elev Updated Type
                   

Watches & Warnings

Small Craft Advisory
Issued: 3:45 PM EST Jan. 17, 2017 – National Weather Service

... Small Craft Advisory remains in effect from 11 PM this evening
to 7 PM EST Wednesday...

* winds and seas... northeast winds 10 to 20 kt with gusts up to
30 kt. Seas 3 to 5 feet.

Precautionary/preparedness actions...

A Small Craft Advisory means that wind speeds of 25 to 33 knots
are expected to produce hazardous wave conditions to small craft.
Inexperienced mariners... especially those operating smaller
vessels should avoid navigating in these conditions.